Tiempo atmosférico en la estación meteorológica de Jimena de la Frontera, Cádiz (50 m.)



Fecha
DESCASC
Temp. máxima en grados centígrados (hora)
DESCASC
Temp. mínima en grados centígrados (hora)
DESCASC
Temp. media en grados centígrados
DESCASC
Racha de viento máxima en m/sg (hora)
DESCASC
Velocidad máxima media en intervalos de 10 minutos(hora)
DESCASC
Precipitaciones diarias en mm
DESCASC
Precipitaciones de 00:00 a 06:00 en mm
DESCASC
Precipitaciones de 06:00 a 12:00 en mm
DESCASC
Precipitaciones de 12:00 a 18:00 en mm
DESCASC
Precipitaciones de 18:00 a 24:00 en mm
DESCASC
10-05-2019 32.3 (16:20) 11.9 (00:00) 22.1 9.72 (12:30) 5.56 (12:30) 0 0 0 0 0
23-05-2019 28.9 (15:20) 9.1 (07:00) 19 8.06 (16:20) 4.44 (13:10) 0 0 0 0 0
22-05-2019 25.8 (15:00) 10 (07:10) 17.9 10.56 (15:20) 6.11 (15:20) 0 0 0 0 0
21-05-2019 28.2 (17:10) 9.9 (07:10) 19.1 11.94 (14:50) 6.11 (17:30) 0 0 0 0 0
20-05-2019 27.9 (16:30) 10.9 (07:00) 19.4 10.28 (14:20) 5.83 (17:30) 0 0 0 0 0
19-05-2019 25.4 (16:00) 11.3 (00:00) 18.3 12.78 (17:20) 7.22 (17:10) 0 0 0 0 0
18-05-2019 23.7 (16:40) 10.2 (00:00) 17 13.33 (18:30) 8.33 (19:10) 0 0 0 0 0
17-05-2019 24.1 (18:20) 13.8 (00:00) 19 15 (13:00) 8.61 (13:40) 0 0 0 0 0
16-05-2019 29.9 (17:40) 11.7 (00:00) 20.8 10.28 (19:40) 5.83 (19:40) 0 0 0 0 0
15-05-2019 35.3 (16:30) 6.9 (00:00) 21.1 8.33 (18:00) 5 (18:00) 0 0 0 0 0
14-05-2019 23.3 (16:10) 11.9 (00:00) 17.6 15.56 (11:50) 8.61 (14:10) 0 0 0 0 0
13-05-2019 23.8 (16:50) 8.7 (00:00) 16.2 13.89 (13:00) 7.5 (13:00) 0 0 0 0 0
12-05-2019 25.3 (15:20) 14.9 (00:00) 20.1 15.28 (10:10) 9.17 (10:10) 0 0 0 0 0
11-05-2019 31.3 (11:50) 12.7 (00:00) 22 7.22 (16:40) 4.44 (16:40) 0 0 0 0 0
26-04-2019 23.6 (15:00) 5.2 (00:00) 14.4 7.78 (10:30) 4.44 (10:20) 0 0 0 0 0
09-05-2019 27 (17:50) 14.8 (00:00) 20.9 10.28 (15:50) 6.11 (16:10) 0 0 0 0 0
08-05-2019 25.5 (15:50) 12.6 (00:00) 19.1 11.39 (16:00) 6.39 (16:30) 0 0 0 0 0
07-05-2019 28.6 (14:50) 7.8 (00:00) 18.2 8.89 (16:40) 5.56 (17:00) 0 0 0 0 0
06-05-2019 27.5 (15:10) 6.8 (00:00) 17.2 9.72 (17:40) 5.83 (17:40) 0 0 0 0 0
05-05-2019 25.9 (16:00) 11.2 (00:00) 18.5 11.67 (15:00) 6.39 (17:00) 0 0 0 0 0
04-05-2019 25.1 (17:00) 12.8 (00:00) 19 8.33 (18:00) 5 (18:20) 0 0 0 0 0
03-05-2019 26.2 (17:00) 9.5 (00:00) 17.9 8.33 (20:10) 4.72 (20:00) 0 0 0 0 0
02-05-2019 23 (13:10) 8.8 (07:20) 15.9 13.06 (18:50) 7.5 (18:50) 0 0 0 0 0
01-05-2019 21.7 (16:50) 11.5 (00:00) 16.6 11.94 (14:10) 6.67 (15:20) 0 0 0 0 0
30-04-2019 22.5 (16:50) 6.5 (00:00) 14.5 8.89 (15:10) 4.17 (14:10) 0 0 0 0 0
29-04-2019 22.6 (14:50) 6.6 (00:00) 14.6 12.78 (11:50) 6.11 (11:50) 0 0 0 0 0
28-04-2019 22.5 (13:50) 6.1 (00:00) 14.3 13.06 (14:40) 7.22 (14:40) 0 0 0 0 0
27-04-2019 21.8 (16:40) 5.3 (00:00) 13.5 15.28 (14:20) 9.17 (14:00) 0 0 0 0 0

Gráficas

Temp. máximas Temp. mínimas Temp. medias Precipitaciones Rachas de viento máximas Velocidades máximas media en intervalos de 10 minutos

Datos horarios

Fecha y hora oficial Temperatura (ºC) Velocidad del viento (km/h) Dirección del viento Racha (km/h) Dirección de racha Precipitación (mm) Presión (hPa) Tendencia (hPa) Humedad (%)
2019-05-25 23:00:00 17 2 Sur 9 Sudeste 0 -- -- 87
2019-05-25 22:00:00 18.4 5 Sudeste 14 Sudeste 0 -- -- 83
2019-05-25 21:00:00 20.2 8 Sudeste 16 Sudeste 0 -- -- 71
2019-05-25 20:00:00 21.7 8 Sudeste 19 Sur 0 -- -- 62
2019-05-25 19:00:00 22.7 12 Sur 26 Sudeste 0 -- -- 63
2019-05-25 18:00:00 23.4 13 Sudeste 30 Sudeste 0 -- -- 61
2019-05-25 17:00:00 23.8 15 Sudeste 28 Sur 0 -- -- 61
2019-05-25 16:00:00 24.3 14 Sudeste 35 Sudeste 0 -- -- 59
2019-05-25 15:00:00 23.8 18 Sudeste 32 Sudeste 0 -- -- 59
2019-05-25 14:00:00 23.8 15 Sudeste 28 Sudeste 0 -- -- 59
2019-05-25 13:00:00 24.3 10 Sudeste 33 Sur 0 -- -- 58
2019-05-25 12:00:00 23.1 14 Sudeste 33 Sudeste 0 -- -- 59
2019-05-25 11:00:00 22.5 15 Sudeste 25 Este 0 -- -- 61
2019-05-25 10:00:00 22.5 10 Sudeste 22 Sudeste 0 -- -- 64
2019-05-25 09:00:00 19.3 2 Noroeste 6 Norte 0 -- -- 72
2019-05-25 08:00:00 14.5 3 Nordeste 6 Nordeste 0 -- -- 90
2019-05-25 07:00:00 13.7 3 Norte 9 Noroeste 0 -- -- 91
2019-05-25 06:00:00 14.1 3 Norte 9 Norte 0 -- -- 91
2019-05-25 05:00:00 14.3 3 Nordeste 12 Sudeste 0 -- -- 88
2019-05-25 04:00:00 15.5 0 Calma 7 Este 0 -- -- 84
2019-05-25 03:00:00 16.5 6 Este 19 Este 0 -- -- 80
2019-05-25 02:00:00 19 10 Sudeste 39 Sudeste 0 -- -- 73
2019-05-25 01:00:00 17.7 10 Sudeste 23 Este 0 -- -- 62
2019-05-25 00:00:00 19.1 2 Sudeste 24 Oeste 0 -- -- 58
2019-05-24 23:00:00 19.4 5 Oeste 26 Oeste 0 -- -- 59
2019-05-24 22:00:00 20.8 15 Oeste 26 Oeste 0 -- -- 57
2019-05-24 21:00:00 22.8 11 Oeste 32 Noroeste 0 -- -- 52
2019-05-24 20:00:00 24.4 14 Noroeste 40 Oeste 0 -- -- 50
2019-05-24 19:00:00 25.8 23 Oeste 43 Oeste 0 -- -- 47
2019-05-24 18:00:00 26.5 23 Oeste 43 Oeste 0 -- -- 46
2019-05-24 17:00:00 26.4 24 Oeste 42 Oeste 0 -- -- 47
2019-05-24 16:00:00 27.1 22 Oeste 38 Oeste 0 -- -- 42
2019-05-24 15:00:00 27.6 17 Oeste 35 Oeste 0 -- -- 35
2019-05-24 14:00:00 26.3 21 Oeste 37 Oeste 0 -- -- 39
2019-05-24 13:00:00 25 23 Oeste 38 Oeste 0 -- -- 46
2019-05-24 12:00:00 24.9 22 Oeste 34 Oeste 0 -- -- 51
2019-05-24 11:00:00 24.8 4 Sudoeste 8 Oeste 0 -- -- 47
2019-05-24 10:00:00 19.5 2 Oeste 4 Oeste 0 -- -- 64
2019-05-24 09:00:00 13.9 0 Calma 7 Este 0 -- -- 82
2019-05-24 08:00:00 10.8 2 Este 6 Este 0 -- -- 89
2019-05-24 07:00:00 10.3 2 Nordeste 4 Este 0 -- -- 90
2019-05-24 06:00:00 10.7 2 Nordeste 6 Este 0 -- -- 87
2019-05-24 05:00:00 11.2 3 Este 6 Este 0 -- -- 85
2019-05-24 04:00:00 11.9 4 Este 8 Este 0 -- -- 82
2019-05-24 03:00:00 12.6 3 Nordeste 5 Este 0 -- -- 79
2019-05-24 02:00:00 13.9 3 Norte 9 Nordeste 0 -- -- 75
2019-05-24 01:00:00 14.2 4 Nordeste 8 Este 0 -- -- 73
2019-05-24 00:00:00 15.4 0 Calma 8 Este 0 -- -- 68
2019-05-23 23:00:00 17 5 Nordeste 8 Este 0 -- -- 62
2019-05-23 22:00:00 19.6 6 Nordeste 9 Nordeste 0 -- -- 51
2019-05-23 21:00:00 23.5 3 Este 12 Sudeste 0 -- -- 40
2019-05-23 20:00:00 26.8 6 Sur 16 Sur 0 -- -- 34
2019-05-23 19:00:00 27.7 8 Sudeste 20 Sudeste 0 -- -- 34
2019-05-23 18:00:00 28 9 Sudeste 23 Sudeste 0 -- -- 30
2019-05-23 17:00:00 28.4 12 Sur 29 Sudeste 0 -- -- 31
2019-05-23 16:00:00 28.7 12 Sur 27 Sur 0 -- -- 31
2019-05-23 15:00:00 28.2 13 Sudeste 27 Sudeste 0 -- -- 31
2019-05-23 14:00:00 28.1 12 Sudeste 27 Este 0 -- -- 31
2019-05-23 13:00:00 26.7 14 Sudeste 24 Sudeste 0 -- -- 31
2019-05-23 12:00:00 26.4 7 Sudeste 18 Sudeste 0 -- -- 36
2019-05-23 11:00:00 23.6 3 Noroeste 7 Noroeste 0 -- -- 48
2019-05-23 10:00:00 20.3 3 Norte 5 Noroeste 0 -- -- 63
2019-05-23 09:00:00 17.6 0 Calma 6 Nordeste 0 -- -- 71
2019-05-23 08:00:00 11.4 3 Nordeste 6 Nordeste 0 -- -- 94
2019-05-23 07:00:00 9.1 2 Nordeste 6 Nordeste 0 -- -- 96
2019-05-23 06:00:00 9.6 2 Nordeste 7 Nordeste 0 -- -- 96
2019-05-23 05:00:00 10.1 2 Nordeste 6 Nordeste 0 -- -- 96
2019-05-23 04:00:00 10.4 2 Nordeste 6 Nordeste 0 -- -- 94
2019-05-23 03:00:00 11.5 0 Calma 7 Nordeste 0 -- -- 94
2019-05-23 02:00:00 11.9 4 Nordeste 8 Nordeste 0 -- -- 93
2019-05-23 01:00:00 12.8 4 Nordeste 9 Nordeste 0 -- -- 91
2019-05-23 00:00:00 13.7 6 Nordeste 10 Nordeste 0 -- -- 90
2019-05-22 23:00:00 15.2 3 Nordeste 7 Este 0 -- -- 85
2019-05-22 22:00:00 18 0 Calma 11 Sudeste 0 -- -- 76
2019-05-22 21:00:00 20.4 8 Sur 22 Sudeste 0 -- -- 66
2019-05-22 20:00:00 21.9 10 Sudeste 23 Sur 0 -- -- 60
2019-05-22 19:00:00 23.1 10 Sur 34 Sur 0 -- -- 59
2019-05-22 18:00:00 23.5 17 Sudeste 33 Sudeste 0 -- -- 56
2019-05-22 17:00:00 24.8 13 Sur 35 Sur 0 -- -- 55
2019-05-22 16:00:00 25.5 18 Sudeste 38 Sudeste 0 -- -- 45
2019-05-22 15:00:00 25.8 14 Sudeste 33 Sur 0 -- -- 46
2019-05-22 14:00:00 25 13 Sudeste 31 Sudeste 0 -- -- 56
2019-05-22 13:00:00 23.1 18 Sudeste 28 Este 0 -- -- 64
2019-05-22 12:00:00 22.5 14 Este 30 Sudeste 0 -- -- 66
2019-05-22 11:00:00 21.7 17 Sudeste 31 Sudeste 0 -- -- 68
2019-05-22 10:00:00 20.3 2 Norte 5 Norte 0 -- -- 66
2019-05-22 09:00:00 17.4 0 Calma 3 Norte 0 -- -- 70
2019-05-22 08:00:00 12.5 2 Nordeste 6 Este 0 -- -- 91
2019-05-22 07:00:00 10.2 3 Nordeste 5 Nordeste 0 -- -- 95
2019-05-22 06:00:00 10.7 3 Nordeste 5 Nordeste 0 -- -- 93
2019-05-22 05:00:00 11.1 3 Nordeste 5 Norte 0 -- -- 92
2019-05-22 04:00:00 12 4 Nordeste 8 Nordeste 0 -- -- 90
2019-05-22 03:00:00 13 2 Nordeste 8 Nordeste 0 -- -- 87
2019-05-22 02:00:00 13.7 6 Nordeste 8 Nordeste 0 -- -- 84
2019-05-22 01:00:00 15.2 0 Calma 11 Este 0 -- -- 75
2019-05-22 00:00:00 15.5 8 Este 11 Este 0 -- -- 73
2019-05-21 23:00:00 17.8 0 Calma 12 Oeste 0 -- -- 65
2019-05-21 22:00:00 21.4 6 Noroeste 18 Oeste 0 -- -- 50
2019-05-21 21:00:00 24.1 11 Oeste 27 Oeste 0 -- -- 44
2019-05-21 20:00:00 26 14 Oeste 27 Sudoeste 0 -- -- 42
2019-05-21 19:00:00 27.3 16 Oeste 31 Oeste 0 -- -- 39
2019-05-21 18:00:00 27.5 21 Oeste 35 Oeste 0 -- -- 40
2019-05-21 17:00:00 28 21 Oeste 38 Oeste 0 -- -- 40
2019-05-21 16:00:00 28 19 Oeste 35 Oeste 0 -- -- 42
2019-05-21 15:00:00 28 21 Oeste 43 Sudoeste 0 -- -- 40
2019-05-21 14:00:00 27.3 19 Oeste 30 Oeste 0 -- -- 41
2019-05-21 13:00:00 26.7 18 Oeste 29 Sudoeste 0 -- -- 45
2019-05-21 12:00:00 25.6 19 Oeste 28 Oeste 0 -- -- 47
2019-05-21 11:00:00 25.3 10 Oeste 17 Oeste 0 -- -- 49
2019-05-21 10:00:00 23.9 4 Oeste 8 Oeste 0 -- -- 50
2019-05-21 09:00:00 20.4 2 Este 6 Nordeste 0 -- -- 56
2019-05-21 08:00:00 12.7 4 Nordeste 9 Nordeste 0 -- -- 78
2019-05-21 07:00:00 10.1 5 Nordeste 9 Nordeste 0 -- -- 87
2019-05-21 06:00:00 10.4 5 Este 9 Este 0 -- -- 85
2019-05-21 05:00:00 10.9 5 Este 9 Este 0 -- -- 83
2019-05-21 04:00:00 11.7 6 Este 10 Nordeste 0 -- -- 78
2019-05-21 03:00:00 12.2 4 Sudeste 8 Sur 0 -- -- 74
2019-05-21 02:00:00 14.4 5 Sur 8 Sur 0 -- -- 63
2019-05-21 01:00:00 18.2 6 Noroeste 17 Noroeste 0 -- -- 46
2019-05-21 00:00:00 17.9 8 Noroeste 18 Noroeste 0 -- -- 47
2019-05-20 23:00:00 18.8 7 Noroeste 18 Oeste 0 -- -- 45
2019-05-20 22:00:00 20.3 9 Noroeste 23 Noroeste 0 -- -- 41
2019-05-20 21:00:00 22.8 13 Oeste 27 Noroeste 0 -- -- 36
2019-05-20 20:00:00 25 16 Oeste 35 Oeste 0 -- -- 34
2019-05-20 19:00:00 26.2 18 Oeste 34 Oeste 0 -- -- 33
2019-05-20 18:00:00 27.3 19 Oeste 33 Oeste 0 -- -- 34
2019-05-20 17:00:00 27.8 17 Oeste 32 Oeste 0 -- -- 37
2019-05-20 16:00:00 27.6 16 Oeste 32 Oeste 0 -- -- 40
2019-05-20 15:00:00 26.5 15 Oeste 37 Oeste 0 -- -- 42
2019-05-20 14:00:00 26.2 15 Oeste 28 Oeste 0 -- -- 43
2019-05-20 13:00:00 25.6 19 Oeste 33 Oeste 0 -- -- 47
2019-05-20 12:00:00 25.5 10 Noroeste 24 Oeste 0 -- -- 46
2019-05-20 11:00:00 24.7 5 Norte 8 Norte 0 -- -- 47
2019-05-20 10:00:00 22.7 2 Este 5 Nordeste 0 -- -- 59
2019-05-20 09:00:00 19.9 0 Calma 6 Este 0 -- -- 69
2019-05-20 08:00:00 13.6 2 Sudeste 7 Nordeste 0 -- -- 90
2019-05-20 07:00:00 10.9 3 Nordeste 9 Este 0 -- -- 95
2019-05-20 06:00:00 11.2 4 Nordeste 9 Nordeste 0 -- -- 94
2019-05-20 05:00:00 11.7 3 Nordeste 9 Nordeste 0 -- -- 94
2019-05-20 04:00:00 12.5 4 Nordeste 9 Este 0 -- -- 92
2019-05-20 03:00:00 13.6 4 Este 6 Noroeste 0 -- -- 88
2019-05-20 02:00:00 16.2 5 Noroeste 9 Noroeste 0 -- -- 83
2019-05-20 01:00:00 16.8 4 Este 13 Oeste 0 -- -- 78
2019-05-20 00:00:00 17.4 8 Oeste 14 Oeste 0 -- -- 75
2019-05-19 23:00:00 17.6 8 Oeste 25 Oeste 0 -- -- 74
2019-05-19 22:00:00 18.2 19 Oeste 31 Oeste 0 -- -- 72
2019-05-19 21:00:00 19.3 14 Oeste 34 Oeste 0 -- -- 67
2019-05-19 20:00:00 21.3 20 Oeste 36 Oeste 0 -- -- 57
2019-05-19 19:00:00 23.3 19 Oeste 39 Oeste 0 -- -- 46
2019-05-19 18:00:00 23.9 21 Oeste 46 Oeste 0 -- -- 44
2019-05-19 17:00:00 24.8 23 Oeste 40 Oeste 0 -- -- 40
2019-05-19 16:00:00 25.4 18 Oeste 37 Noroeste 0 -- -- 37
2019-05-19 15:00:00 24.4 19 Noroeste 35 Norte 0 -- -- 33
2019-05-19 14:00:00 23.5 15 Noroeste 37 Noroeste 0 -- -- 35
2019-05-19 13:00:00 22.2 18 Noroeste 35 Noroeste 0 -- -- 37
2019-05-19 12:00:00 20.5 21 Noroeste 37 Noroeste 0 -- -- 41
2019-05-19 11:00:00 19.4 18 Noroeste 37 Oeste 0 -- -- 49
2019-05-19 10:00:00 18.3 19 Noroeste 35 Noroeste 0 -- -- 51
2019-05-19 09:00:00 15.8 9 Noroeste 33 Oeste 0 -- -- 60
2019-05-19 08:00:00 14.9 14 Oeste 30 Oeste 0 -- -- 61
2019-05-19 07:00:00 15.1 10 Oeste 23 Noroeste 0 -- -- 61
2019-05-19 06:00:00 15.4 12 Noroeste 21 Oeste 0 -- -- 60
2019-05-19 05:00:00 15.5 13 Noroeste 24 Noroeste 0 -- -- 60
2019-05-19 04:00:00 13.4 7 Oeste 17 Oeste 0 -- -- 75
2019-05-19 03:00:00 11.7 3 Norte 8 Norte 0 -- -- 87
2019-05-19 02:00:00 11.9 3 Nordeste 9 Nordeste 0 -- -- 83
2019-05-19 01:00:00 14.1 6 Nordeste 18 Noroeste 0 -- -- 75
2019-05-19 00:00:00 15.9 11 Noroeste 23 Oeste 0 -- -- 74
2019-05-18 23:00:00 16.4 13 Noroeste 27 Noroeste 0 -- -- 67
2019-05-18 22:00:00 16.9 15 Noroeste 37 Noroeste 0 -- -- 65
2019-05-18 21:00:00 18.1 17 Oeste 39 Noroeste 0 -- -- 59
2019-05-18 20:00:00 19.6 20 Oeste 46 Oeste 0 -- -- 52
2019-05-18 19:00:00 21.4 24 Oeste 48 Oeste 0 -- -- 47
2019-05-18 18:00:00 23.3 21 Oeste 41 Oeste 0 -- -- 38
2019-05-18 17:00:00 23 22 Noroeste 42 Norte 0 -- -- 35
2019-05-18 16:00:00 23.1 22 Noroeste 41 Norte 0 -- -- 34
2019-05-18 15:00:00 22.6 21 Noroeste 41 Noroeste 0 -- -- 33
2019-05-18 14:00:00 22 21 Noroeste 44 Noroeste 0 -- -- 35
2019-05-18 13:00:00 21.4 17 Noroeste 32 Noroeste 0 -- -- 41
2019-05-18 12:00:00 20 19 Oeste 36 Oeste 0 -- -- 43
2019-05-18 11:00:00 18.6 21 Noroeste 35 Noroeste 0 -- -- 48
2019-05-18 10:00:00 17.5 17 Noroeste 29 Noroeste 0 -- -- 53
2019-05-18 09:00:00 16.8 10 Noroeste 20 Noroeste 0 -- -- 55
2019-05-18 08:00:00 14.7 11 Noroeste 25 Noroeste 0 -- -- 61
2019-05-18 07:00:00 13.9 13 Noroeste 29 Noroeste 0 -- -- 65
2019-05-18 06:00:00 14.1 12 Noroeste 22 Oeste 0 -- -- 69
2019-05-18 05:00:00 12.3 9 Oeste 20 Oeste 0 -- -- 87
2019-05-18 04:00:00 10.6 3 Nordeste 9 Este 0 -- -- 91
2019-05-18 03:00:00 11.4 3 Este 6 Este 0 -- -- 89
2019-05-18 02:00:00 12.3 3 Nordeste 6 Nordeste 0 -- -- 85
2019-05-18 01:00:00 13.1 5 Este 8 Nordeste 0 -- -- 81
2019-05-18 00:00:00 14.9 7 Este 16 Oeste 0 -- -- 74
2019-05-17 23:00:00 16.3 8 Oeste 32 Oeste 0 -- -- 69
2019-05-17 22:00:00 17 17 Noroeste 39 Oeste 0 -- -- 66
2019-05-17 21:00:00 18.8 21 Oeste 38 Oeste 0 -- -- 55
2019-05-17 20:00:00 20.7 20 Oeste 46 Oeste 0 -- -- 49
2019-05-17 19:00:00 22.2 25 Oeste 45 Oeste 0 -- -- 46
2019-05-17 18:00:00 23.8 23 Noroeste 40 Noroeste 0 -- -- 35
2019-05-17 17:00:00 23.6 27 Oeste 45 Noroeste 0 -- -- 34
2019-05-17 16:00:00 23 27 Noroeste 48 Noroeste 0 -- -- 36
2019-05-17 15:00:00 22.9 23 Noroeste 50 Noroeste 0 -- -- 39
2019-05-17 14:00:00 21.8 26 Noroeste 51 Noroeste 0 -- -- 36
2019-05-17 13:00:00 20.8 29 Noroeste 54 Noroeste 0 -- -- 40
2019-05-17 12:00:00 19.4 25 Noroeste 50 Noroeste 0 -- -- 45
2019-05-17 11:00:00 18 24 Noroeste 40 Noroeste 0 -- -- 49
2019-05-17 10:00:00 17.2 18 Noroeste 35 Noroeste 0 -- -- 51
2019-05-17 09:00:00 16.3 12 Noroeste 38 Oeste 0 -- -- 54
2019-05-17 08:00:00 15 17 Noroeste 30 Noroeste 0 -- -- 58
2019-05-17 07:00:00 14.3 13 Noroeste 37 Noroeste 0 -- -- 59
2019-05-17 06:00:00 15.4 19 Noroeste 41 Noroeste 0 -- -- 57
2019-05-17 05:00:00 16.1 19 Noroeste 38 Noroeste 0 -- -- 57
2019-05-17 04:00:00 16.8 14 Noroeste 30 Norte 0 -- -- 63
2019-05-17 03:00:00 16.6 2 Norte 10 Oeste 0 -- -- 75
2019-05-17 02:00:00 16 4 Nordeste 10 Norte 0 -- -- 80
2019-05-17 01:00:00 16.7 5 Este 8 Este 0 -- -- 79
2019-05-17 00:00:00 18.6 0 Calma 15 Sudoeste 0 -- -- 71
2019-05-16 23:00:00 18.8 3 Norte 15 Noroeste 0 -- -- 70
2019-05-16 22:00:00 21.2 4 Noroeste 26 Noroeste 0 -- -- 59
2019-05-16 21:00:00 24 13 Oeste 36 Oeste 0 -- -- 52
2019-05-16 20:00:00 26.9 19 Oeste 37 Oeste 0 -- -- 39
2019-05-16 19:00:00 28.9 13 Oeste 32 Oeste 0 -- -- 36
2019-05-16 18:00:00 29.5 13 Oeste 30 Oeste 0 -- -- 34
2019-05-16 17:00:00 29.2 18 Oeste 31 Oeste 0 -- -- 38
2019-05-16 16:00:00 27.8 9 Sudeste 17 Sudeste 0 -- -- 54
2019-05-16 15:00:00 26.7 9 Sudeste 25 Sudeste 0 -- -- 55
2019-05-16 14:00:00 25.6 7 Sudeste 23 Sudeste 0 -- -- 57
2019-05-16 13:00:00 24.5 10 Sudeste 28 Este 0 -- -- 59
2019-05-16 12:00:00 24.2 12 Sudeste 32 Sudeste 0 -- -- 59
2019-05-16 11:00:00 23.8 10 Sudeste 25 Sudeste 0 -- -- 58
2019-05-16 10:00:00 23.5 9 Sudeste 19 Este 0 -- -- 60
2019-05-16 09:00:00 20.3 2 Nordeste 9 Nordeste 0 -- -- 67
2019-05-16 08:00:00 14.2 4 Nordeste 13 Norte 0 -- -- 77
2019-05-16 07:00:00 12.2 3 Nordeste 17 Este 0 -- -- 84
2019-05-16 06:00:00 11.7 6 Este 9 Este 0 -- -- 83
2019-05-16 05:00:00 12.3 2 Nordeste 11 Nordeste 0 -- -- 85
2019-05-16 04:00:00 13.1 2 Nordeste 9 Norte 0 -- -- 80
2019-05-16 03:00:00 14.2 6 Este 9 Nordeste 0 -- -- 77
2019-05-16 02:00:00 15.2 4 Nordeste 10 Este 0 -- -- 76
2019-05-16 01:00:00 15.8 4 Este 12 Nordeste 0 -- -- 76
2019-05-16 00:00:00 17.4 7 Este 10 Nordeste 0 -- -- 71
2019-05-15 23:00:00 20.1 4 Este 8 Este 0 -- -- 61
2019-05-15 22:00:00 26.2 6 Noroeste 21 Oeste 0 -- -- 39
2019-05-15 21:00:00 29.7 12 Oeste 25 Oeste 0 -- -- 32
2019-05-15 20:00:00 33 9 Noroeste 24 Noroeste 0 -- -- 31
2019-05-15 19:00:00 34.2 15 Noroeste 28 Oeste 0 -- -- 26
2019-05-15 18:00:00 34.7 18 Oeste 30 Oeste 0 -- -- 27
2019-05-15 17:00:00 35.3 13 Oeste 28 Oeste 0 -- -- 26
2019-05-15 16:00:00 34.5 10 Sur 22 Sudeste 0 -- -- 33
2019-05-15 15:00:00 34.2 6 Sur 14 Sur 0 -- -- 31
2019-05-15 14:00:00 32 3 Nordeste 13 Sudoeste 0 -- -- 29
2019-05-15 13:00:00 28.8 4 Este 10 Sur 0 -- -- 31
2019-05-15 12:00:00 26.1 3 Este 8 Sudeste 0 -- -- 37
2019-05-15 11:00:00 22.3 3 Sur 8 Sudoeste 0 -- -- 47
2019-05-15 10:00:00 19.1 0 Calma 4 Oeste 0 -- -- 58
2019-05-15 09:00:00 15.4 0 Calma 2 Sudeste 0 -- -- 69
2019-05-15 08:00:00 9 2 Este 5 Nordeste 0 -- -- 94
2019-05-15 07:00:00 7 5 Nordeste 7 Nordeste 0 -- -- 95
2019-05-15 06:00:00 7.4 5 Nordeste 7 Nordeste 0 -- -- 95
2019-05-15 05:00:00 7.8 4 Este 6 Nordeste 0 -- -- 94
2019-05-15 04:00:00 8.4 3 Este 6 Nordeste 0 -- -- 94
2019-05-15 03:00:00 9 4 Este 5 Este 0 -- -- 93
2019-05-15 02:00:00 9.8 5 Nordeste 9 Este 0 -- -- 91
2019-05-15 01:00:00 10.8 3 Nordeste 8 Norte 0 -- -- 88
2019-05-15 00:00:00 11.9 5 Nordeste 10 Nordeste 0 -- -- 86
2019-05-14 23:00:00 12.8 4 Nordeste 10 Nordeste 0 -- -- 82
2019-05-14 22:00:00 15.9 0 Calma 24 Sudeste 0 -- -- 74
2019-05-14 21:00:00 18.6 12 Sudeste 29 Sudeste 0 -- -- 61
2019-05-14 20:00:00 20.4 18 Sudeste 45 Este 0 -- -- 55
2019-05-14 19:00:00 21.4 21 Sudeste 40 Sudeste 0 -- -- 50
2019-05-14 18:00:00 22 24 Sudeste 42 Sudeste 0 -- -- 47
2019-05-14 17:00:00 23 22 Sudeste 49 Sudeste 0 -- -- 44
2019-05-14 16:00:00 23.1 23 Sudeste 52 Sudeste 0 -- -- 43
2019-05-14 15:00:00 22.5 29 Este 56 Sudeste 0 -- -- 46
2019-05-14 14:00:00 21.5 29 Sudeste 50 Este 0 -- -- 57
2019-05-14 13:00:00 22.6 23 Sudeste 48 Sudeste 0 -- -- 46
2019-05-14 12:00:00 22.2 29 Este 56 Este 0 -- -- 44
2019-05-14 11:00:00 21.5 23 Sudeste 41 Este 0 -- -- 51
2019-05-14 10:00:00 21 21 Sudeste 48 Sudeste 0 -- -- 51
2019-05-14 09:00:00 20.3 19 Sudeste 41 Sudeste 0 -- -- 49
2019-05-14 08:00:00 19 16 Sudeste 40 Este 0 -- -- 50
2019-05-14 07:00:00 18.1 20 Sudeste 39 Este 0 -- -- 47
2019-05-14 06:00:00 18.3 17 Sudeste 36 Sudeste 0 -- -- 44
2019-05-14 05:00:00 18.2 12 Sudeste 32 Sudeste 0 -- -- 43
2019-05-14 04:00:00 18.6 15 Este 41 Sudeste 0 -- -- 44
2019-05-14 03:00:00 18.9 22 Sudeste 43 Este 0 -- -- 54
2019-05-14 02:00:00 18.9 22 Sudeste 38 Sudeste 0 -- -- 60
2019-05-14 01:00:00 18.6 13 Sudeste 33 Sudeste 0 -- -- 53
2019-05-14 00:00:00 18 12 Sudeste 29 Este 0 -- -- 63
2019-05-13 23:00:00 17.8 14 Sudeste 32 Este 0 -- -- 66
2019-05-13 22:00:00 17.6 8 Sudeste 24 Sudeste 0 -- -- 70
2019-05-13 21:00:00 18.9 14 Sudeste 24 Sudeste 0 -- -- 70
2019-05-13 20:00:00 21 11 Sudeste 25 Sudeste 0 -- -- 59
2019-05-13 19:00:00 22.2 15 Sudeste 28 Sudeste 0 -- -- 53
2019-05-13 18:00:00 23.4 13 Sudeste 35 Sudeste 0 -- -- 49
2019-05-13 17:00:00 23.4 19 Sudeste 39 Sudeste 0 -- -- 44
2019-05-13 16:00:00 23.1 22 Sudeste 44 Este 0 -- -- 47
2019-05-13 15:00:00 23 24 Sudeste 44 Sudeste 0 -- -- 46
2019-05-13 14:00:00 23.5 22 Sudeste 45 Sudeste 0 -- -- 45
2019-05-13 13:00:00 23.1 27 Sudeste 50 Sudeste 0 -- -- 43
2019-05-13 12:00:00 23.6 21 Sudeste 47 Sudeste 0 -- -- 38
2019-05-13 11:00:00 23.5 16 Sudeste 41 Sudeste 0 -- -- 39
2019-05-13 10:00:00 20.2 3 Noroeste 6 Noroeste 0 -- -- 55
2019-05-13 09:00:00 16.4 0 Calma 5 Este 0 -- -- 67
2019-05-13 08:00:00 10.8 3 Este 6 Nordeste 0 -- -- 87
2019-05-13 07:00:00 8.9 3 Este 5 Este 0 -- -- 90
2019-05-13 06:00:00 9.9 3 Nordeste 6 Nordeste 0 -- -- 88
2019-05-13 05:00:00 10.2 5 Nordeste 8 Este 0 -- -- 85
2019-05-13 04:00:00 10.9 3 Nordeste 7 Nordeste 0 -- -- 82
2019-05-13 03:00:00 11.8 3 Norte 9 Nordeste 0 -- -- 78
2019-05-13 02:00:00 12.7 5 Nordeste 9 Nordeste 0 -- -- 74
2019-05-13 01:00:00 14.1 5 Norte 12 Noroeste 0 -- -- 69
2019-05-13 00:00:00 19.1 6 Sudeste 23 Sudeste 0 -- -- 46
2019-05-12 23:00:00 19.7 12 Sudeste 26 Sudeste 0 -- -- 44
2019-05-12 22:00:00 19.8 12 Sudeste 28 Sudeste 0 -- -- 49
2019-05-12 21:00:00 20.6 14 Sudeste 28 Sudeste 0 -- -- 55
2019-05-12 20:00:00 22 17 Sudeste 37 Sudeste 0 -- -- 52
2019-05-12 19:00:00 23.5 18 Sudeste 39 Sudeste 0 -- -- 47
2019-05-12 18:00:00 24.5 17 Sudeste 38 Sudeste 0 -- -- 47
2019-05-12 17:00:00 24.9 18 Sudeste 50 Sudeste 0 -- -- 48
2019-05-12 16:00:00 25.3 25 Sudeste 47 Sudeste 0 -- -- 44
2019-05-12 15:00:00 25.1 23 Sudeste 47 Sudeste 0 -- -- 47
2019-05-12 14:00:00 24.6 23 Sudeste 53 Este 0 -- -- 53
2019-05-12 13:00:00 24.1 23 Sudeste 47 Este 0 -- -- 58
2019-05-12 12:00:00 23.6 22 Sudeste 44 Sudeste 0 -- -- 60
2019-05-12 11:00:00 23.8 20 Sudeste 55 Sudeste 0 -- -- 57
2019-05-12 10:00:00 24.4 24 Este 54 Sudeste 0 -- -- 48
2019-05-12 09:00:00 23.9 24 Sudeste 43 Sudeste 0 -- -- 46
2019-05-12 08:00:00 22.5 14 Este 34 Este 0 -- -- 52
2019-05-12 07:00:00 21.5 22 Sudeste 39 Este 0 -- -- 61
2019-05-12 06:00:00 15.4 5 Norte 27 Este 0 -- -- 86
2019-05-12 05:00:00 14.9 4 Norte 9 Noroeste 0 -- -- 87
2019-05-12 04:00:00 16.1 3 Nordeste 13 Noroeste 0 -- -- 82
2019-05-12 03:00:00 19.2 5 Este 31 Sudeste 0 -- -- 72
2019-05-12 02:00:00 19 12 Este 32 Este 0 -- -- 71
2019-05-12 01:00:00 16 4 Nordeste 10 Norte 0 -- -- 84
2019-05-12 00:00:00 17.2 3 Nordeste 10 Nordeste 0 -- -- 81
2019-05-11 23:00:00 18.6 6 Nordeste 9 Nordeste 0 -- -- 77
2019-05-11 22:00:00 22 6 Sur 10 Sudoeste 0 -- -- 64
2019-05-11 21:00:00 25.7 4 Sur 24 Sudeste 0 -- -- 50
2019-05-11 20:00:00 27.6 10 Sudeste 24 Sudeste 0 -- -- 45
2019-05-11 19:00:00 29.3 9 Sudeste 22 Sudeste 0 -- -- 42
2019-05-11 18:00:00 30.6 11 Sur 24 Sudeste 0 -- -- 39
2019-05-11 17:00:00 30.9 12 Sudeste 26 Sudeste 0 -- -- 37
2019-05-11 16:00:00 30.7 15 Sudeste 25 Sudeste 0 -- -- 38
2019-05-11 15:00:00 30.7 14 Sudeste 26 Sudeste 0 -- -- 39
2019-05-11 14:00:00 29.9 13 Sudeste 25 Sudeste 0 -- -- 42
2019-05-11 13:00:00 30.5 13 Sudeste 21 Sudeste 0 -- -- 40
2019-05-11 12:00:00 31 8 Sudeste 17 Sudeste 0 -- -- 38
2019-05-11 11:00:00 29.4 2 Noroeste 6 Noroeste 0 -- -- 46
2019-05-11 10:00:00 25.5 4 Noroeste 7 Noroeste 0 -- -- 55
2019-05-11 09:00:00 21.5 2 Nordeste 10 Nordeste 0 -- -- 67
2019-05-11 08:00:00 14.4 8 Nordeste 11 Nordeste 0 -- -- 83
2019-05-11 07:00:00 12.7 5 Nordeste 9 Nordeste 0 -- -- 87
2019-05-11 06:00:00 12.9 8 Nordeste 11 Nordeste 0 -- -- 86
2019-05-11 05:00:00 13.4 6 Nordeste 12 Nordeste 0 -- -- 83
2019-05-11 04:00:00 13.7 8 Nordeste 12 Este 0 -- -- 84
2019-05-11 03:00:00 14.4 8 Este 12 Nordeste 0 -- -- 82
2019-05-11 02:00:00 15.4 8 Nordeste 9 Este 0 -- -- 81
2019-05-11 01:00:00 17 3 Este 9 Este 0 -- -- 76
2019-05-11 00:00:00 18.6 3 Norte 10 Norte 0 -- -- 71
2019-05-10 23:00:00 20.2 4 Noroeste 8 Norte 0 -- -- 66
2019-05-10 22:00:00 23.6 3 Noroeste 11 Norte 0 -- -- 53
2019-05-10 21:00:00 27.6 4 Norte 14 Noroeste 0 -- -- 44
2019-05-10 20:00:00 30.2 9 Noroeste 23 Noroeste 0 -- -- 41
2019-05-10 19:00:00 31.5 10 Noroeste 29 Noroeste 0 -- -- 39
2019-05-10 18:00:00 31.7 16 Noroeste 32 Noroeste 0 -- -- 42
2019-05-10 17:00:00 32.1 17 Noroeste 30 Noroeste 0 -- -- 40
2019-05-10 16:00:00 32 15 Noroeste 26 Noroeste 0 -- -- 40
2019-05-10 15:00:00 31.3 15 Noroeste 29 Noroeste 0 -- -- 41
2019-05-10 14:00:00 30.5 16 Noroeste 35 Oeste 0 -- -- 44
2019-05-10 13:00:00 29.4 19 Oeste 35 Oeste 0 -- -- 45
2019-05-10 12:00:00 29.1 14 Oeste 24 Oeste 0 -- -- 47
2019-05-10 11:00:00 27.4 3 Sudoeste 6 Sudeste 0 -- -- 55
2019-05-10 10:00:00 23.7 0 Calma 5 Este 0 -- -- 63
2019-05-10 09:00:00 17.8 2 Noroeste 4 Norte 0 -- -- 81
2019-05-10 08:00:00 13.5 0 Calma 6 Nordeste 0 -- -- 97
2019-05-10 07:00:00 11.9 2 Nordeste 6 Nordeste 0 -- -- 96
2019-05-10 06:00:00 12.3 4 Nordeste 6 Nordeste 0 -- -- 96
2019-05-10 05:00:00 12.8 4 Este 9 Este 0 -- -- 95
2019-05-10 04:00:00 13.1 5 Este 8 Este 0 -- -- 95
2019-05-10 03:00:00 14 5 Este 9 Este 0 -- -- 93
2019-05-10 02:00:00 14.9 0 Calma 5 Este 0 -- -- 91
2019-05-10 01:00:00 16 2 Sudeste 6 Sudoeste 0 -- -- 87
2019-05-10 00:00:00 18.6 4 Noroeste 15 Oeste 0 -- -- 78
2019-05-09 23:00:00 19.2 4 Noroeste 11 Oeste 0 -- -- 76
2019-05-09 22:00:00 20.8 6 Noroeste 21 Oeste 0 -- -- 72
2019-05-09 21:00:00 22.5 13 Noroeste 24 Noroeste 0 -- -- 67
2019-05-09 20:00:00 24.9 10 Noroeste 31 Oeste 0 -- -- 58
2019-05-09 19:00:00 26.1 18 Noroeste 32 Oeste 0 -- -- 55
2019-05-09 18:00:00 27 17 Noroeste 34 Oeste 0 -- -- 52
2019-05-09 17:00:00 26.1 22 Oeste 36 Oeste 0 -- -- 53
2019-05-09 16:00:00 25.5 21 Oeste 37 Noroeste 0 -- -- 57
2019-05-09 15:00:00 24.4 19 Oeste 32 Noroeste 0 -- -- 60
2019-05-09 14:00:00 23.4 16 Noroeste 31 Noroeste 0 -- -- 65
2019-05-09 13:00:00 21.6 15 Noroeste 27 Oeste 0 -- -- 70
2019-05-09 12:00:00 20.9 14 Noroeste 27 Noroeste 0 -- -- 70
2019-05-09 11:00:00 20.3 12 Noroeste 26 Noroeste 0 -- -- 70
2019-05-09 10:00:00 19.3 14 Noroeste 26 Noroeste 0 -- -- 75
2019-05-09 09:00:00 18.4 6 Noroeste 13 Noroeste 0 -- -- 81
2019-05-09 08:00:00 17.1 9 Sudoeste 13 Sudoeste 0 -- -- 87
2019-05-09 07:00:00 16.5 2 Sudeste 6 Sudoeste 0 -- -- 90
2019-05-09 06:00:00 17.1 2 Este 14 Oeste 0 -- -- 88
2019-05-09 05:00:00 17.6 10 Oeste 16 Oeste 0 -- -- 84
2019-05-09 04:00:00 16.9 7 Oeste 15 Oeste 0 -- -- 85
2019-05-09 03:00:00 14.8 3 Noroeste 6 Oeste 0 -- -- 86
2019-05-09 02:00:00 15.3 0 Calma 7 Noroeste 0 -- -- 81
2019-05-09 01:00:00 16 4 Este 12 Oeste 0 -- -- 75
2019-05-09 00:00:00 17.5 6 Noroeste 14 Noroeste 0 -- -- 67
2019-05-08 23:00:00 18 4 Noroeste 23 Noroeste 0 -- -- 66
2019-05-08 22:00:00 18.5 12 Noroeste 24 Oeste 0 -- -- 63
2019-05-08 21:00:00 20.3 16 Noroeste 31 Oeste 0 -- -- 60
2019-05-08 20:00:00 22.2 17 Oeste 37 Oeste 0 -- -- 61
2019-05-08 19:00:00 23.1 19 Oeste 37 Oeste 0 -- -- 56
2019-05-08 18:00:00 24.1 19 Noroeste 39 Oeste 0 -- -- 54
2019-05-08 17:00:00 24.5 21 Oeste 40 Oeste 0 -- -- 55
2019-05-08 16:00:00 25.3 22 Oeste 41 Oeste 0 -- -- 53
2019-05-08 15:00:00 24.2 19 Noroeste 36 Noroeste 0 -- -- 57
2019-05-08 14:00:00 24.3 20 Oeste 35 Noroeste 0 -- -- 58
2019-05-08 13:00:00 23.5 15 Oeste 32 Noroeste 0 -- -- 61
2019-05-08 12:00:00 22.1 14 Oeste 27 Oeste 0 -- -- 64
2019-05-08 11:00:00 20.8 14 Noroeste 26 Noroeste 0 -- -- 66
2019-05-08 10:00:00 22.2 11 Noroeste 24 Oeste 0 -- -- 65
2019-05-08 09:00:00 19.1 3 Este 10 Este 0 -- -- 76
2019-05-08 08:00:00 14.3 3 Norte 9 Oeste 0 -- -- 93
2019-05-08 07:00:00 15.4 5 Oeste 21 Oeste 0 -- -- 88
2019-05-08 06:00:00 15.9 8 Sudoeste 13 Sudoeste 0 -- -- 88
2019-05-08 05:00:00 15.9 4 Sudeste 22 Oeste 0 -- -- 88
2019-05-08 04:00:00 15.7 7 Oeste 21 Oeste 0 -- -- 87
2019-05-08 03:00:00 12.9 3 Sudeste 11 Este 0 -- -- 89
2019-05-08 02:00:00 14.4 4 Este 9 Oeste 0 -- -- 83
2019-05-08 01:00:00 17 4 Nordeste 15 Oeste 0 -- -- 73
2019-05-08 00:00:00 17.9 3 Noroeste 28 Oeste 0 -- -- 72
2019-05-07 23:00:00 19.1 15 Oeste 29 Oeste 0 -- -- 69
2019-05-07 22:00:00 20.2 5 Noroeste 22 Oeste 0 -- -- 65
2019-05-07 21:00:00 22.2 8 Oeste 24 Oeste 0 -- -- 60
2019-05-07 20:00:00 24.8 13 Oeste 27 Oeste 0 -- -- 53
2019-05-07 19:00:00 26.6 14 Oeste 31 Oeste 0 -- -- 52
2019-05-07 18:00:00 27.5 15 Oeste 31 Oeste 0 -- -- 52
2019-05-07 17:00:00 27.3 20 Oeste 32 Oeste 0 -- -- 52
2019-05-07 16:00:00 28.4 15 Oeste 27 Sudoeste 0 -- -- 47
2019-05-07 15:00:00 28.4 12 Oeste 21 Oeste 0 -- -- 42
2019-05-07 14:00:00 27.5 9 Oeste 22 Oeste 0 -- -- 44
2019-05-07 13:00:00 27 5 Oeste 15 Sudoeste 0 -- -- 41
2019-05-07 12:00:00 25 8 Sudoeste 16 Sudoeste 0 -- -- 47
2019-05-07 11:00:00 21.6 2 Norte 8 Oeste 0 -- -- 57
2019-05-07 10:00:00 19.3 0 Calma 5 Este 0 -- -- 64
2019-05-07 09:00:00 14.4 0 Calma 6 Nordeste 0 -- -- 79
2019-05-07 08:00:00 8.8 5 Este 7 Nordeste 0 -- -- 97
2019-05-07 07:00:00 8.2 4 Nordeste 9 Este 0 -- -- 96
2019-05-07 06:00:00 8.7 5 Este 8 Este 0 -- -- 96
2019-05-07 05:00:00 9.5 4 Nordeste 9 Nordeste 0 -- -- 97
2019-05-07 04:00:00 9.5 5 Nordeste 10 Nordeste 0 -- -- 96
2019-05-07 03:00:00 10.2 7 Nordeste 9 Nordeste 0 -- -- 95
2019-05-07 02:00:00 11.1 6 Este 8 Este 0 -- -- 94
2019-05-07 01:00:00 12.1 6 Este 8 Este 0 -- -- 93
2019-05-07 00:00:00 14 2 Nordeste 8 Este 0 -- -- 88
2019-05-06 23:00:00 17.2 4 Este 23 Noroeste 0 -- -- 80
2019-05-06 22:00:00 19.4 13 Noroeste 23 Oeste 0 -- -- 73
2019-05-06 21:00:00 22.1 7 Oeste 22 Oeste 0 -- -- 65
2019-05-06 20:00:00 24.1 12 Oeste 30 Oeste 0 -- -- 59
2019-05-06 19:00:00 24.1 16 Oeste 33 Oeste 0 -- -- 59
2019-05-06 18:00:00 26.3 17 Oeste 35 Oeste 0 -- -- 53
2019-05-06 17:00:00 27 17 Oeste 35 Oeste 0 -- -- 51
2019-05-06 16:00:00 26.8 20 Oeste 32 Noroeste 0 -- -- 52
2019-05-06 15:00:00 27.3 17 Oeste 30 Oeste 0 -- -- 51
2019-05-06 14:00:00 26.4 18 Oeste 31 Oeste 0 -- -- 54
2019-05-06 13:00:00 25.7 15 Oeste 30 Oeste 0 -- -- 54
2019-05-06 12:00:00 24.1 12 Oeste 23 Oeste 0 -- -- 56
2019-05-06 11:00:00 21.8 10 Oeste 22 Oeste 0 -- -- 58
2019-05-06 10:00:00 18.9 3 Sudoeste 7 Sudoeste 0 -- -- 64
2019-05-06 09:00:00 14.5 2 Este 9 Este 0 -- -- 77
2019-05-06 08:00:00 7.9 2 Nordeste 8 Nordeste 0 -- -- 99
2019-05-06 07:00:00 6.9 6 Nordeste 9 Nordeste 0 -- -- 98
2019-05-06 06:00:00 7.3 5 Nordeste 11 Este 0 -- -- 97
2019-05-06 05:00:00 7.8 3 Nordeste 9 Este 0 -- -- 97
2019-05-06 04:00:00 8.5 4 Nordeste 10 Este 0 -- -- 96
2019-05-06 03:00:00 9.3 2 Norte 10 Noroeste 0 -- -- 95
2019-05-06 02:00:00 9.9 6 Este 9 Este 0 -- -- 95
2019-05-06 01:00:00 11.1 4 Este 9 Nordeste 0 -- -- 93
2019-05-06 00:00:00 13 5 Este 8 Este 0 -- -- 88
2019-05-05 23:00:00 16.3 2 Sudoeste 23 Oeste 0 -- -- 76
2019-05-05 22:00:00 18.5 12 Oeste 27 Oeste 0 -- -- 67
2019-05-05 21:00:00 20.5 17 Oeste 32 Oeste 0 -- -- 61
2019-05-05 20:00:00 22.8 17 Oeste 33 Oeste 0 -- -- 56
2019-05-05 19:00:00 24.1 21 Oeste 37 Oeste 0 -- -- 53
2019-05-05 18:00:00 25 19 Oeste 36 Noroeste 0 -- -- 52
2019-05-05 17:00:00 25.2 23 Oeste 39 Oeste 0 -- -- 51
2019-05-05 16:00:00 25.9 17 Oeste 38 Oeste 0 -- -- 53
2019-05-05 15:00:00 25.4 21 Oeste 42 Oeste 0 -- -- 52
2019-05-05 14:00:00 24.9 20 Oeste 36 Oeste 0 -- -- 55
2019-05-05 13:00:00 24 20 Oeste 34 Oeste 0 -- -- 57
2019-05-05 12:00:00 22.3 19 Oeste 34 Oeste 0 -- -- 60
2019-05-05 11:00:00 20.5 15 Oeste 36 Noroeste 0 -- -- 65
2019-05-05 10:00:00 18.7 18 Oeste 37 Oeste 0 -- -- 68
2019-05-05 09:00:00 17 16 Oeste 30 Oeste 0 -- -- 73
2019-05-05 08:00:00 14.4 12 Oeste 24 Oeste 0 -- -- 83
2019-05-05 07:00:00 14.4 14 Oeste 32 Noroeste 0 -- -- 84
2019-05-05 06:00:00 13.8 10 Noroeste 24 Oeste 0 -- -- 89
2019-05-05 05:00:00 11.7 3 Este 22 Oeste 0 -- -- 90
2019-05-05 04:00:00 11.6 3 Nordeste 23 Noroeste 0 -- -- 92
2019-05-05 03:00:00 14.6 11 Oeste 22 Oeste 0 -- -- 90
2019-05-05 02:00:00 11.6 3 Este 12 Noroeste 0 -- -- 96
2019-05-05 01:00:00 12 4 Norte 11 Este 0 -- -- 96
2019-05-05 00:00:00 12.8 3 Nordeste 10 Nordeste 0 -- -- 93
2019-05-04 23:00:00 14.3 4 Nordeste 9 Sudoeste 0 -- -- 87
2019-05-04 22:00:00 17.2 4 Sudoeste 8 Oeste 0 -- -- 79
2019-05-04 21:00:00 19.4 6 Oeste 25 Oeste 0 -- -- 71
2019-05-04 20:00:00 21.4 14 Oeste 27 Oeste 0 -- -- 64
2019-05-04 19:00:00 23.2 16 Oeste 28 Oeste 0 -- -- 58
2019-05-04 18:00:00 24.3 16 Oeste 30 Sudoeste 0 -- -- 57
2019-05-04 17:00:00 25.1 14 Oeste 24 Oeste 0 -- -- 56
2019-05-04 16:00:00 23 11 Oeste 20 Oeste 0 -- -- 63
2019-05-04 15:00:00 22.8 2 Oeste 9 Oeste 0 -- -- 65
2019-05-04 14:00:00 21.9 3 Sudeste 6 Sudoeste 0 -- -- 69
2019-05-04 13:00:00 21.5 3 Este 5 Este 0 -- -- 71
2019-05-04 12:00:00 19.9 0 Calma 8 Sur 0 -- -- 79
2019-05-04 11:00:00 19.6 3 Sudoeste 6 Oeste 0 -- -- 80
2019-05-04 10:00:00 17.3 0 Calma 3 Norte 0 -- -- 89
2019-05-04 09:00:00 15.2 0 Calma 4 Oeste 0 -- -- 93
2019-05-04 08:00:00 14.5 0 Calma 3 Noroeste 0 -- -- 94
2019-05-04 07:00:00 14.3 0 Calma 4 Este 0 -- -- 94
2019-05-04 06:00:00 14 0 Calma 5 Sur 0 -- -- 93
2019-05-04 05:00:00 15.8 2 Norte 26 Noroeste 0 -- -- 88
2019-05-04 04:00:00 16.5 10 Oeste 26 Oeste 0 -- -- 88
2019-05-04 03:00:00 16.3 4 Sur 17 Sudeste 0 -- -- 89
2019-05-04 02:00:00 17 8 Noroeste 22 Noroeste 0 -- -- 85
2019-05-04 01:00:00 17.2 7 Sudoeste 30 Oeste 0 -- -- 84
2019-05-04 00:00:00 17.6 10 Noroeste 27 Noroeste 0 -- -- 84
2019-05-03 23:00:00 18.4 3 Noroeste 19 Sudoeste 0 -- -- 80
2019-05-03 22:00:00 18.7 5 Noroeste 24 Oeste 0 -- -- 78
2019-05-03 21:00:00 20.2 9 Oeste 30 Noroeste 0 -- -- 74
2019-05-03 20:00:00 22.7 17 Oeste 29 Oeste 0 -- -- 66
2019-05-03 19:00:00 24.9 14 Oeste 24 Oeste 0 -- -- 60
2019-05-03 18:00:00 26 7 Sudoeste 23 Sudeste 0 -- -- 58
2019-05-03 17:00:00 26.2 4 Sur 17 Sudeste 0 -- -- 51
2019-05-03 16:00:00 24.6 7 Sur 21 Sudeste 0 -- -- 50
2019-05-03 15:00:00 24.1 11 Sudeste 21 Sudoeste 0 -- -- 50
2019-05-03 14:00:00 23.9 9 Sur 24 Sur 0 -- -- 43
2019-05-03 13:00:00 23.1 9 Sudeste 24 Sur 0 -- -- 46
2019-05-03 12:00:00 21.6 10 Sudeste 23 Sudeste 0 -- -- 55
2019-05-03 11:00:00 20.8 7 Sudeste 17 Sudeste 0 -- -- 63
2019-05-03 10:00:00 18.8 0 Calma 5 Oeste 0 -- -- 70
2019-05-03 09:00:00 14.5 0 Calma 5 Nordeste 0 -- -- 80
2019-05-03 08:00:00 10.1 2 Nordeste 5 Nordeste 0 -- -- 98
2019-05-03 07:00:00 9.8 3 Nordeste 8 Nordeste 0 -- -- 96
2019-05-03 06:00:00 9.8 4 Nordeste 6 Nordeste 0 -- -- 95
2019-05-03 05:00:00 10.5 3 Noroeste 10 Nordeste 0 -- -- 95
2019-05-03 04:00:00 10.9 0 Calma 9 Noroeste 0 -- -- 94
2019-05-03 03:00:00 11.4 5 Nordeste 10 Nordeste 0 -- -- 94
2019-05-03 02:00:00 11.9 2 Nordeste 9 Nordeste 0 -- -- 92
2019-05-03 01:00:00 12.8 4 Noroeste 8 Norte 0 -- -- 90
2019-05-03 00:00:00 13.5 0 Calma 10 Sudeste 0 -- -- 87
2019-05-02 23:00:00 16.1 3 Este 23 Sudeste 0 -- -- 76
2019-05-02 22:00:00 16.7 7 Este 19 Este 0 -- -- 74
2019-05-02 21:00:00 17.6 9 Sudeste 28 Sudeste 0 -- -- 71
2019-05-02 20:00:00 19.1 17 Sudeste 41 Este 0 -- -- 65
2019-05-02 19:00:00 20 25 Sudeste 47 Este 0 -- -- 61
2019-05-02 18:00:00 21.1 22 Sudeste 42 Este 0 -- -- 54
2019-05-02 17:00:00 21.6 18 Sudeste 37 Sudeste 0 -- -- 56
2019-05-02 16:00:00 21.9 19 Sudeste 38 Sur 0 -- -- 55
2019-05-02 15:00:00 21.8 18 Sudeste 38 Sudeste 0 -- -- 56
2019-05-02 14:00:00 21.7 18 Sudeste 46 Sudeste 0 -- -- 49
2019-05-02 13:00:00 22.6 19 Sudeste 40 Sudeste 0 -- -- 52
2019-05-02 12:00:00 21.4 19 Sudeste 40 Este 0 -- -- 51
2019-05-02 11:00:00 19.8 4 Sudoeste 8 Oeste 0 -- -- 64
2019-05-02 10:00:00 16 3 Sudoeste 5 Sudoeste 0 -- -- 79
2019-05-02 09:00:00 11.4 0 Calma 6 Sur 0 -- -- 94
2019-05-02 08:00:00 9.2 2 Nordeste 6 Nordeste 0 -- -- 97
2019-05-02 07:00:00 8.9 4 Este 6 Este 0 -- -- 96
2019-05-02 06:00:00 9.5 0 Calma 6 Nordeste 0 -- -- 94
2019-05-02 05:00:00 9.6 2 Nordeste 8 Nordeste 0 -- -- 95
2019-05-02 04:00:00 9.7 4 Nordeste 6 Nordeste 0 -- -- 96
2019-05-02 03:00:00 10 2 Este 8 Nordeste 0 -- -- 95
2019-05-02 02:00:00 10.7 6 Nordeste 10 Norte 0 -- -- 96
2019-05-02 01:00:00 11.2 3 Sur 10 Nordeste 0 -- -- 94
2019-05-02 00:00:00 12.3 0 Calma 10 Nordeste 0 -- -- 93
2019-05-01 23:00:00 13.3 6 Nordeste 8 Nordeste 0 -- -- 90
2019-05-01 22:00:00 15.7 5 Sur 16 Sur 0 -- -- 84
2019-05-01 21:00:00 17.5 4 Sudeste 15 Sudeste 0 -- -- 75
2019-05-01 20:00:00 19.4 9 Sudeste 22 Sudeste 0 -- -- 66
2019-05-01 19:00:00 20.6 12 Sudeste 27 Sudeste 0 -- -- 62
2019-05-01 18:00:00 20.5 15 Sudeste 37 Sudeste 0 -- -- 60
2019-05-01 17:00:00 21.2 17 Sudeste 39 Sur 0 -- -- 61
2019-05-01 16:00:00 21.1 22 Sudeste 41 Sudeste 0 -- -- 60
2019-05-01 15:00:00 21 22 Sudeste 43 Sudeste 0 -- -- 61
2019-05-01 14:00:00 21 23 Sudeste 39 Sudeste 0 -- -- 60
2019-05-01 13:00:00 20.5 19 Sudeste 38 Sudeste 0 -- -- 65
2019-05-01 12:00:00 19.8 19 Sudeste 37 Este 0 -- -- 69
2019-05-01 11:00:00 19.8 15 Sudeste 32 Este 0 -- -- 68
2019-05-01 10:00:00 18.2 2 Noroeste 8 Noroeste 0 -- -- 75
2019-05-01 09:00:00 16.4 0 Calma 8 Nordeste 0 -- -- 81
2019-05-01 08:00:00 12.2 4 Nordeste 8 Nordeste 0 -- -- 96
2019-05-01 07:00:00 13.3 3 Nordeste 5 Norte 0 -- -- 92
2019-05-01 06:00:00 14.1 2 Nordeste 5 Nordeste 0 -- -- 95
2019-05-01 05:00:00 13.6 0 Calma 7 Noroeste 0 -- -- 96
2019-05-01 04:00:00 12.8 3 Norte 7 Noroeste 0 -- -- 97
2019-05-01 03:00:00 11.8 0 Calma 8 Nordeste 0 -- -- 97
2019-05-01 02:00:00 11.7 3 Norte 9 Norte 0 -- -- 96
2019-05-01 01:00:00 12.2 2 Norte 9 Nordeste 0 -- -- 95
2019-05-01 00:00:00 12.2 4 Nordeste 8 Nordeste 0 -- -- 94
2019-04-30 23:00:00 13.3 5 Nordeste 8 Nordeste 0 -- -- 91
2019-04-30 22:00:00 15.7 3 Sur 8 Sudeste 0 -- -- 83
2019-04-30 21:00:00 17.7 5 Sudeste 14 Sudeste 0 -- -- 74
2019-04-30 20:00:00 20.2 6 Sudeste 16 Sudeste 0 -- -- 66
2019-04-30 19:00:00 21.5 8 Sur 22 Sudeste 0 -- -- 64
2019-04-30 18:00:00 22 10 Sudeste 22 Sudeste 0 -- -- 65
2019-04-30 17:00:00 22.3 12 Sur 26 Sudeste 0 -- -- 63
2019-04-30 16:00:00 21.9 15 Sudeste 32 Sudeste 0 -- -- 65
2019-04-30 15:00:00 21.7 15 Sudeste 28 Sudeste 0 -- -- 63
2019-04-30 14:00:00 22 12 Sudeste 27 Sudeste 0 -- -- 62
2019-04-30 13:00:00 21.4 13 Sudeste 26 Sudeste 0 -- -- 61
2019-04-30 12:00:00 21.1 9 Sudeste 20 Este 0 -- -- 63
2019-04-30 11:00:00 19.3 4 Sur 8 Sur 0 -- -- 69
2019-04-30 10:00:00 16.3 2 Noroeste 5 Noroeste 0 -- -- 73
2019-04-30 09:00:00 12 2 Noroeste 4 Noroeste 0 -- -- 83
2019-04-30 08:00:00 6.9 0 Calma 6 Este 0 -- -- 99
2019-04-30 07:00:00 6.6 3 Este 6 Nordeste 0 -- -- 97
2019-04-30 06:00:00 7.3 4 Nordeste 8 Nordeste 0 -- -- 97
2019-04-30 05:00:00 7.8 2 Nordeste 7 Nordeste 0 -- -- 96
2019-04-30 04:00:00 8.5 2 Este 6 Norte 0 -- -- 95
2019-04-30 03:00:00 9.5 3 Norte 9 Norte 0 -- -- 94
2019-04-30 02:00:00 9.3 3 Nordeste 8 Nordeste 0 -- -- 94
2019-04-30 01:00:00 9.8 3 Este 8 Nordeste 0 -- -- 92
2019-04-30 00:00:00 10.9 4 Nordeste 8 Nordeste 0 -- -- 89
2019-04-29 23:00:00 11.9 5 Nordeste 9 Nordeste 0 -- -- 86
2019-04-29 22:00:00 14.5 0 Calma 6 Sudeste 0 -- -- 77
2019-04-29 21:00:00 17.5 3 Sur 13 Sur 0 -- -- 63
2019-04-29 20:00:00 19.8 7 Sudeste 23 Sur 0 -- -- 52
2019-04-29 19:00:00 21 12 Sudeste 32 Sudeste 0 -- -- 46
2019-04-29 18:00:00 21.7 16 Sudeste 37 Sudeste 0 -- -- 44
2019-04-29 17:00:00 22 20 Sudeste 38 Sudeste 0 -- -- 44
2019-04-29 16:00:00 22.1 19 Sudeste 41 Sudeste 0 -- -- 45
2019-04-29 15:00:00 22.3 19 Sudeste 39 Sudeste 0 -- -- 43
2019-04-29 14:00:00 22.1 19 Sudeste 40 Este 0 -- -- 41
2019-04-29 13:00:00 22 19 Sudeste 41 Sudeste 0 -- -- 41
2019-04-29 12:00:00 21.3 21 Sudeste 46 Sudeste 0 -- -- 41
2019-04-29 11:00:00 19.3 2 Norte 6 Noroeste 0 -- -- 53
2019-04-29 10:00:00 16 0 Calma 4 Oeste 0 -- -- 65
2019-04-29 09:00:00 10.3 0 Calma 4 Este 0 -- -- 85
2019-04-29 08:00:00 7.2 2 Nordeste 5 Norte 0 -- -- 90
2019-04-29 07:00:00 6.7 3 Nordeste 6 Norte 0 -- -- 89
2019-04-29 06:00:00 7.2 3 Nordeste 8 Nordeste 0 -- -- 87
2019-04-29 05:00:00 7.3 2 Nordeste 8 Este 0 -- -- 87
2019-04-29 04:00:00 7.8 0 Calma 9 Nordeste 0 -- -- 86
2019-04-29 03:00:00 9 4 Nordeste 9 Norte 0 -- -- 82
2019-04-29 02:00:00 9.5 2 Nordeste 7 Este 0 -- -- 83
2019-04-29 01:00:00 10.1 4 Nordeste 8 Nordeste 0 -- -- 79
2019-04-29 00:00:00 11.3 0 Calma 5 Norte 0 -- -- 73
2019-04-28 23:00:00 14 4 Norte 14 Sudeste 0 -- -- 59
2019-04-28 22:00:00 16.5 6 Sudeste 22 Sudeste 0 -- -- 50
2019-04-28 21:00:00 17.8 12 Sudeste 31 Sudeste 0 -- -- 45
2019-04-28 20:00:00 19.3 18 Sudeste 44 Este 0 -- -- 41
2019-04-28 19:00:00 20.7 18 Sudeste 39 Sur 0 -- -- 40
2019-04-28 18:00:00 21.3 23 Sudeste 42 Sudeste 0 -- -- 37
2019-04-28 17:00:00 21.9 21 Sudeste 42 Este 0 -- -- 38
2019-04-28 16:00:00 22.1 22 Sudeste 44 Sudeste 0 -- -- 36
2019-04-28 15:00:00 22.2 21 Sudeste 47 Sudeste 0 -- -- 34
2019-04-28 14:00:00 22.4 20 Sudeste 45 Este 0 -- -- 36
2019-04-28 13:00:00 22 20 Sudeste 45 Sudeste 0 -- -- 38
2019-04-28 12:00:00 21.5 17 Sudeste 40 Sudeste 0 -- -- 40
2019-04-28 11:00:00 20.6 19 Sudeste 40 Este 0 -- -- 39
2019-04-28 10:00:00 19.5 15 Sudeste 31 Sudeste 0 -- -- 41
2019-04-28 09:00:00 12.7 0 Calma 4 Noroeste 0 -- -- 74
2019-04-28 08:00:00 6.4 0 Calma 4 Noroeste 0 -- -- 96
2019-04-28 07:00:00 6.3 0 Calma 5 Este 0 -- -- 94
2019-04-28 06:00:00 6.8 0 Calma 5 Norte 0 -- -- 91
2019-04-28 05:00:00 7.7 3 Nordeste 5 Nordeste 0 -- -- 92
2019-04-28 04:00:00 8 3 Norte 5 Noroeste 0 -- -- 90
2019-04-28 03:00:00 8.7 3 Noroeste 8 Este 0 -- -- 89
2019-04-28 02:00:00 9.3 2 Noroeste 7 Noroeste 0 -- -- 86
2019-04-28 01:00:00 10.3 0 Calma 7 Noroeste 0 -- -- 80
2019-04-28 00:00:00 12 4 Noroeste 21 Sudeste 0 -- -- 72
2019-04-27 23:00:00 16.4 7 Sudeste 18 Este 0 -- -- 48
2019-04-27 22:00:00 17.3 8 Sudeste 19 Este 0 -- -- 45
2019-04-27 21:00:00 18.7 12 Este 29 Este 0 -- -- 41
2019-04-27 20:00:00 20.3 15 Este 39 Este 0 -- -- 37
2019-04-27 19:00:00 20.9 21 Sudeste 42 Sudeste 0 -- -- 36
2019-04-27 18:00:00 21.4 22 Sudeste 41 Sudeste 0 -- -- 36
2019-04-27 17:00:00 21.5 26 Sudeste 49 Este 0 -- -- 40
2019-04-27 16:00:00 21.5 27 Sudeste 48 Este 0 -- -- 43
2019-04-27 15:00:00 21.4 28 Sudeste 55 Sudeste 0 -- -- 43
2019-04-27 14:00:00 21 33 Este 53 Este 0 -- -- 42
2019-04-27 13:00:00 21.2 23 Este 54 Este 0 -- -- 46
2019-04-27 12:00:00 20.8 30 Sudeste 53 Este 0 -- -- 46
2019-04-27 11:00:00 19.8 23 Sudeste 48 Este 0 -- -- 49
2019-04-27 10:00:00 14.4 4 Noroeste 9 Noroeste 0 -- -- 73
2019-04-27 09:00:00 10.9 0 Calma 5 Nordeste 0 -- -- 83
2019-04-27 08:00:00 5.5 2 Este 5 Este 0 -- -- 99
2019-04-27 07:00:00 5.5 0 Calma 5 Este 0 -- -- 98
2019-04-27 06:00:00 6.1 3 Nordeste 5 Este 0 -- -- 98
2019-04-27 05:00:00 6.4 4 Nordeste 6 Nordeste 0 -- -- 97
2019-04-27 04:00:00 6.9 5 Nordeste 8 Nordeste 0 -- -- 96
2019-04-27 03:00:00 7.1 3 Este 6 Este 0 -- -- 95
2019-04-27 02:00:00 8 0 Calma 6 Nordeste 0 -- -- 94
2019-04-27 01:00:00 8.9 4 Este 8 Este 0 -- -- 92
2019-04-27 00:00:00 9.8 5 Este 8 Este 0 -- -- 90
2019-04-26 23:00:00 11 5 Este 8 Nordeste 0 -- -- 86
2019-04-26 22:00:00 13.6 0 Calma 8 Este 0 -- -- 76
2019-04-26 21:00:00 17.9 0 Calma 13 Este 0 -- -- 57
2019-04-26 20:00:00 20.7 9 Sudeste 19 Sudeste 0 -- -- 41
2019-04-26 19:00:00 21.9 12 Sudeste 23 Sudeste 0 -- -- 38
2019-04-26 18:00:00 23.5 7 Sudeste 21 Sudeste 0 -- -- 39
2019-04-26 17:00:00 22.8 12 Sudeste 25 Sudeste 0 -- -- 39
2019-04-26 16:00:00 23.1 13 Sudeste 24 Sudeste 0 -- -- 42
2019-04-26 15:00:00 23.6 9 Sudeste 18 Sudeste 0 -- -- 40
2019-04-26 14:00:00 22.8 6 Sur 15 Oeste 0 -- -- 40
2019-04-26 13:00:00 21.6 6 Sudeste 14 Noroeste 0 -- -- 41
2019-04-26 12:00:00 20.2 6 Noroeste 25 Noroeste 0 -- -- 46
2019-04-26 11:00:00 17.7 13 Norte 28 Norte 0 -- -- 48
2019-04-26 10:00:00 14.9 14 Noroeste 22 Noroeste 0 -- -- 67
2019-04-26 09:00:00 11.3 0 Calma 7 Este 0 -- -- 86
2019-04-26 08:00:00 5.6 4 Este 7 Este 0 -- -- 99
2019-04-26 07:00:00 5.6 3 Nordeste 8 Nordeste 0 -- -- 98
2019-04-26 06:00:00 6 3 Nordeste 6 Este 0 -- -- 98
2019-04-26 05:00:00 6.5 4 Nordeste 8 Nordeste 0 -- -- 98
2019-04-26 04:00:00 7.4 5 Este 8 Nordeste 0 -- -- 98
2019-04-26 03:00:00 7.4 6 Este 8 Este 0 -- -- 97
2019-04-26 02:00:00 8.3 2 Este 6 Este 0 -- -- 96
2019-04-26 01:00:00 9.1 4 Nordeste 6 Nordeste 0 -- -- 94
2019-04-26 00:00:00 10.3 3 Nordeste 9 Nordeste 0 -- -- 91